createdAt,value
2018-06-01T00:00:15.877Z,40.50
2018-06-01T00:02:44.798Z,40.07
2018-06-01T00:05:13.669Z,38.27
2018-06-01T00:07:43.083Z,38.67
2018-06-01T00:10:11.933Z,38.30
2018-06-01T00:12:40.805Z,38.20
2018-06-01T00:15:09.649Z,40.67
2018-06-01T00:17:38.587Z,40.47
2018-06-01T00:20:07.445Z,35.40
2018-06-01T00:22:36.306Z,37.17
2018-06-01T00:25:05.448Z,36.57
2018-06-01T00:27:34.306Z,36.40
2018-06-01T00:30:03.170Z,43.03
2018-06-01T00:32:32.098Z,55.10
2018-06-01T00:35:00.948Z,42.57
2018-06-01T00:37:29.790Z,42.67
2018-06-01T00:39:58.670Z,35.70
2018-06-01T00:42:27.526Z,34.43
2018-06-01T00:44:56.382Z,38.70
2018-06-01T00:47:25.262Z,35.90
2018-06-01T00:49:54.100Z,39.00
2018-06-01T00:52:22.936Z,34.27
2018-06-01T00:54:57.634Z,35.63
2018-06-01T00:57:26.480Z,34.77
2018-06-01T00:59:55.334Z,38.80
2018-06-01T01:02:24.190Z,35.13
2018-06-01T01:04:53.097Z,41.30
2018-06-01T01:07:21.958Z,35.17
2018-06-01T01:09:50.810Z,39.43
2018-06-01T01:12:19.695Z,55.47
2018-06-01T01:14:48.541Z,49.00
2018-06-01T01:17:18.227Z,36.27
2018-06-01T01:19:47.082Z,54.53
2018-06-01T01:22:15.920Z,55.60
2018-06-01T01:24:44.809Z,44.83
2018-06-01T01:27:13.678Z,43.33
2018-06-01T01:29:43.089Z,43.80
2018-06-01T01:32:11.962Z,50.53
2018-06-01T01:34:40.828Z,46.67
2018-06-01T01:37:09.702Z,45.60
2018-06-01T01:39:38.537Z,57.17
2018-06-01T01:42:07.410Z,53.13
2018-06-01T01:44:36.286Z,61.93
2018-06-01T01:47:05.156Z,50.27
2018-06-01T01:49:34.022Z,63.23
2018-06-01T01:52:02.930Z,57.77
2018-06-01T01:54:31.831Z,53.47
2018-06-01T01:57:00.683Z,43.03
2018-06-01T01:59:29.542Z,66.50
2018-06-01T02:01:58.417Z,79.03
2018-06-01T02:04:27.303Z,55.70
2018-06-01T02:06:56.187Z,62.73
2018-06-01T02:09:25.027Z,52.13
2018-06-01T02:11:53.912Z,41.50
2018-06-01T02:14:22.831Z,50.37
2018-06-01T02:16:52.596Z,58.83
2018-06-01T02:19:21.455Z,77.03
2018-06-01T02:21:50.332Z,42.73
2018-06-01T02:24:19.179Z,39.20
2018-06-01T02:26:48.032Z,56.17
2018-06-01T02:29:16.937Z,67.23
2018-06-01T02:31:45.807Z,45.20
2018-06-01T02:34:14.664Z,48.73
2018-06-01T02:36:44.299Z,56.50
2018-06-01T02:39:13.157Z,43.67
2018-06-01T02:41:42.032Z,77.90
2018-06-01T02:44:10.879Z,56.03
2018-06-01T02:46:39.831Z,44.37
2018-06-01T02:49:08.697Z,58.80
2018-06-01T02:51:37.533Z,46.57
2018-06-01T02:54:06.433Z,54.57
2018-06-01T02:56:35.342Z,49.03
2018-06-01T02:59:04.192Z,45.33
2018-06-01T03:01:33.039Z,70.53
2018-06-01T03:04:01.913Z,35.73
2018-06-01T03:06:36.724Z,42.90
2018-06-01T03:09:05.585Z,55.97
2018-06-01T03:11:34.438Z,47.73
2018-06-01T03:14:03.278Z,42.70
2018-06-01T03:16:32.164Z,47.33
2018-06-01T03:19:01.014Z,53.53
2018-06-01T03:21:29.946Z,44.00
2018-06-01T03:23:58.840Z,53.33
2018-06-01T03:26:27.686Z,69.40
2018-06-01T03:28:56.538Z,56.53
2018-06-01T03:31:25.424Z,56.83
2018-06-01T03:33:54.259Z,53.73
2018-06-01T03:36:23.097Z,55.50
2018-06-01T03:38:51.983Z,43.43
2018-06-01T03:41:20.845Z,41.43
2018-06-01T03:43:49.686Z,44.93
2018-06-01T03:46:18.576Z,42.17
2018-06-01T03:48:47.486Z,51.20
2018-06-01T03:51:16.347Z,55.80
2018-06-01T03:53:45.335Z,50.20
2018-06-01T03:56:14.189Z,49.07
2018-06-01T03:58:43.100Z,52.60
2018-06-01T04:01:11.973Z,54.80
2018-06-01T04:03:40.863Z,49.63
2018-06-01T04:06:09.760Z,47.53
2018-06-01T04:08:38.605Z,49.47
2018-06-01T04:11:07.471Z,57.37
2018-06-01T04:13:36.348Z,61.40
2018-06-01T04:16:05.199Z,53.30
2018-06-01T04:18:34.053Z,49.13
2018-06-01T04:21:02.959Z,55.33
2018-06-01T04:23:31.847Z,52.30
2018-06-01T04:26:00.968Z,51.03
2018-06-01T04:28:29.850Z,55.47
2018-06-01T04:30:58.729Z,58.20
2018-06-01T04:33:27.592Z,54.97
2018-06-01T04:35:56.462Z,53.93
2018-06-01T04:38:25.317Z,58.37
2018-06-01T04:40:54.185Z,61.40
2018-06-01T04:43:23.032Z,56.57
2018-06-01T04:45:51.871Z,49.17
2018-06-01T04:48:20.802Z,56.83
2018-06-01T04:50:49.653Z,57.90
2018-06-01T04:53:18.526Z,55.43
2018-06-01T04:55:47.409Z,65.90
2018-06-01T04:58:16.258Z,58.07
2018-06-01T05:00:45.195Z,62.27
2018-06-01T05:03:15.044Z,57.60
2018-06-01T05:05:43.897Z,57.73
2018-06-01T05:08:12.740Z,61.07
2018-06-01T05:10:41.612Z,58.20
2018-06-01T05:13:10.470Z,61.47
2018-06-01T05:15:39.318Z,77.17
2018-06-01T05:18:08.185Z,70.93
2018-06-01T05:20:37.052Z,76.47
2018-06-01T05:23:05.948Z,67.63
2018-06-01T05:25:34.842Z,61.43
2018-06-01T05:28:03.736Z,64.43
2018-06-01T05:30:32.598Z,66.30
2018-06-01T05:33:01.522Z,64.27
2018-06-01T05:35:30.414Z,72.00
2018-06-01T05:37:59.292Z,58.40
2018-06-01T05:40:28.173Z,64.30
2018-06-01T05:42:57.028Z,61.57
2018-06-01T05:45:25.881Z,57.63
2018-06-01T05:47:54.812Z,68.50
2018-06-01T05:50:23.668Z,61.50
2018-06-01T05:52:52.527Z,62.13
2018-06-01T05:55:21.402Z,72.93
2018-06-01T05:57:50.256Z,65.53
2018-06-01T06:00:19.489Z,61.37
2018-06-01T06:02:48.384Z,58.03
2018-06-01T06:05:17.394Z,64.73
2018-06-01T06:07:46.246Z,60.90
2018-06-01T06:10:15.756Z,63.83
2018-06-01T06:12:44.596Z,60.93
2018-06-01T06:15:13.448Z,61.07
2018-06-01T06:17:42.419Z,62.63
2018-06-01T06:20:11.238Z,68.23
2018-06-01T06:22:40.091Z,66.23
2018-06-01T06:25:08.984Z,70.10
2018-06-01T06:27:37.871Z,70.43
2018-06-01T06:30:06.735Z,87.23
2018-06-01T06:32:35.604Z,66.93
2018-06-01T06:35:04.475Z,68.20
2018-06-01T06:37:33.326Z,72.00
2018-06-01T06:40:02.252Z,70.90
2018-06-01T06:42:31.148Z,78.07
2018-06-01T06:44:59.985Z,56.40
2018-06-01T06:47:28.912Z,76.50
2018-06-01T06:49:57.760Z,59.30
2018-06-01T06:52:26.608Z,67.33
2018-06-01T06:54:55.519Z,65.27
2018-06-01T06:57:24.361Z,64.03
2018-06-01T06:59:53.218Z,63.73
2018-06-01T07:02:22.100Z,61.27
2018-06-01T07:04:50.958Z,62.97
2018-06-01T07:07:19.859Z,64.87
2018-06-01T07:09:48.722Z,64.70
2018-06-01T07:12:17.612Z,67.57
2018-06-01T07:14:46.455Z,62.80
2018-06-01T07:17:15.319Z,63.53
2018-06-01T07:19:44.168Z,67.03
2018-06-01T07:22:13.023Z,63.20
2018-06-01T07:24:42.589Z,69.17
2018-06-01T07:27:11.449Z,68.30
2018-06-01T07:29:41.257Z,62.20
2018-06-01T07:32:10.125Z,66.20
2018-06-01T07:34:38.965Z,76.50
2018-06-01T07:37:07.859Z,63.03
2018-06-01T07:39:36.747Z,57.90
2018-06-01T07:42:05.597Z,67.13
2018-06-01T07:44:34.469Z,67.83
2018-06-01T07:47:03.348Z,69.77
2018-06-01T07:49:32.193Z,68.40
2018-06-01T07:52:01.045Z,63.10
2018-06-01T07:54:29.992Z,73.77
2018-06-01T07:56:58.857Z,63.73
2018-06-01T07:59:27.700Z,70.27
2018-06-01T08:01:56.618Z,71.50
2018-06-01T08:04:25.612Z,69.77
2018-06-01T08:06:54.583Z,72.13
2018-06-01T08:09:23.519Z,69.27
2018-06-01T08:11:52.372Z,72.20
2018-06-01T08:14:21.234Z,69.60
2018-06-01T08:16:50.106Z,79.97
2018-06-01T08:19:18.952Z,76.67
2018-06-01T08:21:47.853Z,69.93
2018-06-01T08:24:16.734Z,81.40
2018-06-01T08:26:45.580Z,78.57
2018-06-01T08:29:14.448Z,74.53
2018-06-01T08:31:44.214Z,73.83
2018-06-01T08:34:13.077Z,79.23
2018-06-01T08:36:41.986Z,80.27
2018-06-01T08:39:10.881Z,73.30
2018-06-01T08:41:39.728Z,62.93
2018-06-01T08:44:08.592Z,85.63
2018-06-01T08:46:37.492Z,79.80
2018-06-01T08:49:06.333Z,75.00
2018-06-01T08:51:35.184Z,82.40
2018-06-01T08:54:04.038Z,72.63
2018-06-01T08:56:32.926Z,76.73
2018-06-01T08:59:01.799Z,78.67
2018-06-01T09:01:30.687Z,74.00
2018-06-01T09:03:59.552Z,82.13
2018-06-01T09:06:28.390Z,76.40
2018-06-01T09:08:57.276Z,77.47
2018-06-01T09:11:26.146Z,81.83
2018-06-01T09:13:54.992Z,86.63
2018-06-01T09:16:23.875Z,80.33
2018-06-01T09:18:52.723Z,85.83
2018-06-01T09:21:21.590Z,83.70
2018-06-01T09:23:50.450Z,87.07
2018-06-01T09:26:19.322Z,83.13
2018-06-01T09:28:48.219Z,91.23
2018-06-01T09:31:17.086Z,83.30
2018-06-01T09:33:45.958Z,86.63
2018-06-01T09:36:14.807Z,91.93
2018-06-01T09:38:44.450Z,85.97
2018-06-01T09:41:14.092Z,88.40
2018-06-01T09:43:42.966Z,91.40
2018-06-01T09:46:11.822Z,87.60
2018-06-01T09:48:40.699Z,90.30
2018-06-01T09:51:09.547Z,88.73
2018-06-01T09:53:38.406Z,89.10
2018-06-01T09:56:07.277Z,92.93
2018-06-01T09:58:36.156Z,94.83
2018-06-01T10:01:09.956Z,85.23
2018-06-01T10:03:38.817Z,88.17
2018-06-01T10:06:07.682Z,97.00
2018-06-01T10:08:36.564Z,101.10
2018-06-01T10:11:08.342Z,106.13
2018-06-01T10:13:37.336Z,101.53
2018-06-01T10:16:06.178Z,100.60
2018-06-01T10:18:35.096Z,92.87
2018-06-01T10:21:04.006Z,95.50
2018-06-01T10:23:32.849Z,97.63
2018-06-01T10:26:01.723Z,97.67
2018-06-01T10:28:30.586Z,91.00
2018-06-01T10:30:59.436Z,93.93
2018-06-01T10:33:31.622Z,88.20
2018-06-01T10:36:00.618Z,90.03
2018-06-01T10:38:29.498Z,90.20
2018-06-01T10:40:58.353Z,87.70
2018-06-01T10:43:27.190Z,85.37
2018-06-01T10:45:56.099Z,90.67
2018-06-01T10:48:25.007Z,88.50
2018-06-01T10:50:53.849Z,80.33
2018-06-01T10:53:22.695Z,76.37
2018-06-01T10:55:51.550Z,85.33
2018-06-01T10:58:20.388Z,78.37
2018-06-01T11:00:49.275Z,72.73
2018-06-01T11:03:18.139Z,72.10
2018-06-01T11:05:46.991Z,72.87
2018-06-01T11:08:15.843Z,65.57
2018-06-01T11:10:44.788Z,65.17
2018-06-01T11:13:13.647Z,56.80
2018-06-01T11:15:42.641Z,60.70
2018-06-01T11:18:11.507Z,60.00
2018-06-01T11:20:41.128Z,60.70
2018-06-01T11:23:09.999Z,61.00
2018-06-01T11:25:38.874Z,59.67
2018-06-01T11:28:09.376Z,63.60
2018-06-01T11:30:38.289Z,66.97
2018-06-01T11:33:07.174Z,64.90
2018-06-01T11:35:36.044Z,61.80
2018-06-01T11:38:05.009Z,51.53
2018-06-01T11:40:33.899Z,54.83
2018-06-01T11:43:02.751Z,55.87
2018-06-01T11:45:31.649Z,50.90
2018-06-01T11:48:00.566Z,46.73
2018-06-01T11:50:29.405Z,45.90
2018-06-01T11:52:58.277Z,50.70
2018-06-01T11:55:27.142Z,51.17
2018-06-01T11:57:56.024Z,50.60
2018-06-01T12:00:24.895Z,50.87
2018-06-01T12:02:53.807Z,45.97
2018-06-01T12:05:22.657Z,47.77
2018-06-01T12:07:51.509Z,47.67
2018-06-01T12:10:20.368Z,47.07
2018-06-01T12:12:49.248Z,42.53
2018-06-01T12:15:18.148Z,43.27
2018-06-01T12:17:47.800Z,45.03
2018-06-01T12:20:16.824Z,41.03
2018-06-01T12:22:45.798Z,43.83
2018-06-01T12:25:14.712Z,43.43
2018-06-01T12:27:43.559Z,41.07
2018-06-01T12:30:14.022Z,41.87
2018-06-01T12:32:42.887Z,47.53
2018-06-01T12:35:11.780Z,46.13
2018-06-01T12:37:40.643Z,49.53
2018-06-01T12:40:09.507Z,47.40
2018-06-01T12:42:38.395Z,48.03
2018-06-01T12:45:07.251Z,45.87
2018-06-01T12:47:36.168Z,45.50
2018-06-01T12:50:05.073Z,47.67
2018-06-01T12:52:34.245Z,44.07
2018-06-01T12:55:03.204Z,39.40
2018-06-01T12:57:32.054Z,44.77
2018-06-01T13:02:36.849Z,45.67
2018-06-01T13:05:05.745Z,45.77
2018-06-01T13:07:34.595Z,45.70
2018-06-01T13:10:03.503Z,45.87
2018-06-01T13:12:32.402Z,42.23
2018-06-01T13:15:01.253Z,45.37
2018-06-01T13:17:30.178Z,43.37
2018-06-01T13:19:59.054Z,43.33
2018-06-01T13:22:27.921Z,41.60
2018-06-01T13:24:56.791Z,36.43
2018-06-01T13:27:25.643Z,33.23
2018-06-01T13:29:54.498Z,37.17
2018-06-01T13:32:23.402Z,36.43
2018-06-01T13:34:52.257Z,36.03
2018-06-01T13:37:21.093Z,35.77
2018-06-01T13:39:50.015Z,36.37
2018-06-01T13:42:18.860Z,32.83
2018-06-01T13:44:47.717Z,33.60
2018-06-01T13:47:16.615Z,33.10
2018-06-01T13:49:45.497Z,35.13
2018-06-01T13:52:14.595Z,33.27
2018-06-01T13:54:43.517Z,29.17
2018-06-01T13:57:12.369Z,30.10
2018-06-01T13:59:41.464Z,27.83
2018-06-01T14:02:10.361Z,30.60
2018-06-01T14:04:39.246Z,26.43
2018-06-01T14:07:08.101Z,23.60
2018-06-01T14:09:36.977Z,21.73
2018-06-01T14:12:05.854Z,25.40
2018-06-01T14:14:35.154Z,28.53
2018-06-01T14:17:04.108Z,21.13
2018-06-01T14:19:33.052Z,22.30
2018-06-01T14:22:01.924Z,19.83
2018-06-01T14:24:30.782Z,22.40
2018-06-01T14:26:59.643Z,21.13
2018-06-01T14:29:28.508Z,23.10
2018-06-01T14:31:57.398Z,22.23
2018-06-01T14:34:26.240Z,23.63
2018-06-01T14:36:55.201Z,20.77
2018-06-01T14:39:24.106Z,22.10
2018-06-01T14:41:52.968Z,21.80
2018-06-01T14:44:21.844Z,21.03
2018-06-01T14:46:50.857Z,20.60
2018-06-01T14:49:19.694Z,21.47
2018-06-01T14:51:48.554Z,21.17
2018-06-01T14:54:17.508Z,20.30
2018-06-01T14:56:46.371Z,21.43
2018-06-01T14:59:15.222Z,20.23
2018-06-01T15:01:44.163Z,20.67
2018-06-01T15:04:13.001Z,24.00
2018-06-01T15:06:42.337Z,21.13
2018-06-01T15:09:11.250Z,21.63
2018-06-01T15:11:40.156Z,23.10
2018-06-01T15:14:09.010Z,25.10
2018-06-01T15:16:39.082Z,23.07
2018-06-01T15:19:08.110Z,25.23
2018-06-01T15:21:36.970Z,25.40
2018-06-01T15:24:06.642Z,28.40
2018-06-01T15:26:35.501Z,25.33
2018-06-01T15:29:04.373Z,29.73
2018-06-01T15:31:33.249Z,28.77
2018-06-01T15:34:02.136Z,29.97
2018-06-01T15:36:31.018Z,33.07
2018-06-01T15:38:59.890Z,29.90
2018-06-01T15:41:28.769Z,28.10
2018-06-01T15:43:57.657Z,28.27
2018-06-01T15:46:26.523Z,29.37
2018-06-01T15:48:55.411Z,30.30
2018-06-01T15:51:24.297Z,29.20
2018-06-01T15:53:53.156Z,30.33
2018-06-01T15:56:22.832Z,30.77
2018-06-01T15:58:51.700Z,29.70
2018-06-01T16:01:20.571Z,33.03
2018-06-01T16:03:49.438Z,34.37
2018-06-01T16:06:19.208Z,33.03
2018-06-01T16:08:48.207Z,35.83
2018-06-01T16:11:17.053Z,41.23
2018-06-01T16:13:45.938Z,38.77
2018-06-01T16:16:14.837Z,39.20
2018-06-01T16:18:44.378Z,42.20
2018-06-01T16:21:13.281Z,40.03
2018-06-01T16:23:42.149Z,44.43
2018-06-01T16:26:11.019Z,44.80
2018-06-01T16:28:39.943Z,47.30
2018-06-01T16:31:08.823Z,45.30
2018-06-01T16:33:37.667Z,48.60
2018-06-01T16:36:06.547Z,46.10
2018-06-01T16:38:35.433Z,43.97
2018-06-01T16:41:04.298Z,47.23
2018-06-01T16:43:33.184Z,49.03
2018-06-01T16:46:02.046Z,53.57
2018-06-01T16:48:30.900Z,52.60
2018-06-01T16:50:59.801Z,52.67
2018-06-01T16:53:28.639Z,51.67
2018-06-01T16:55:57.515Z,52.93
2018-06-01T16:58:26.395Z,59.03
2018-06-01T17:00:55.276Z,57.80
2018-06-01T17:03:24.171Z,61.10
2018-06-01T17:05:53.048Z,65.23
2018-06-01T17:08:21.927Z,62.63
2018-06-01T17:10:50.836Z,62.13
2018-06-01T17:13:19.789Z,54.53
2018-06-01T17:15:48.645Z,56.43
2018-06-01T17:18:17.515Z,51.50
2018-06-01T17:20:46.411Z,48.23
2018-06-01T17:23:15.279Z,44.90
2018-06-01T17:25:44.197Z,47.43
2018-06-01T17:28:13.134Z,49.63
2018-06-01T17:30:42.039Z,46.33
2018-06-01T17:33:10.935Z,46.63
2018-06-01T17:35:39.830Z,44.63
2018-06-01T17:38:08.697Z,43.57
2018-06-01T17:40:37.561Z,41.80
2018-06-01T17:43:06.464Z,38.47
2018-06-01T17:45:35.319Z,40.10
2018-06-01T17:48:04.199Z,37.40
2018-06-01T17:50:33.176Z,36.80
2018-06-01T17:53:02.040Z,32.93
2018-06-01T17:55:30.902Z,36.70
2018-06-01T17:57:59.786Z,33.63
2018-06-01T18:00:28.653Z,31.77
2018-06-01T18:02:57.531Z,32.57
2018-06-01T18:05:26.418Z,30.33
2018-06-01T18:07:55.292Z,28.97
2018-06-01T18:10:24.300Z,32.70
2018-06-01T18:12:53.226Z,31.53
2018-06-01T18:15:22.202Z,31.73
2018-06-01T18:17:51.078Z,28.23
2018-06-01T18:20:20.096Z,28.57
2018-06-01T18:22:48.962Z,26.77
2018-06-01T18:25:17.870Z,25.00
2018-06-01T18:27:47.393Z,29.33
2018-06-01T18:30:16.294Z,29.33
2018-06-01T18:32:45.202Z,26.30
2018-06-01T18:35:15.657Z,26.30
2018-06-01T18:37:44.502Z,30.80
2018-06-01T18:40:13.341Z,24.87
2018-06-01T18:42:42.230Z,25.83
2018-06-01T18:45:11.059Z,23.93
2018-06-01T18:47:39.943Z,23.03
2018-06-01T18:50:08.808Z,24.03
2018-06-01T18:52:37.670Z,21.53
2018-06-01T18:55:06.563Z,18.57
2018-06-01T18:57:35.420Z,19.47
2018-06-01T19:00:04.328Z,17.77
2018-06-01T19:02:33.222Z,17.70
2018-06-01T19:05:02.136Z,18.33
2018-06-01T19:07:31.005Z,19.80
2018-06-01T19:09:59.895Z,18.33
2018-06-01T19:12:28.760Z,20.70
2018-06-01T19:14:57.599Z,19.43
2018-06-01T19:17:26.532Z,20.07
2018-06-01T19:19:55.358Z,18.23
2018-06-01T19:22:24.219Z,17.80
2018-06-01T19:24:53.101Z,21.23
2018-06-01T19:27:21.965Z,18.30
2018-06-01T19:29:50.850Z,20.83
2018-06-01T19:32:19.748Z,20.13
2018-06-01T19:34:48.618Z,17.50
2018-06-01T19:37:17.559Z,19.60
2018-06-01T19:39:46.497Z,18.67
2018-06-01T19:42:15.352Z,19.13
2018-06-01T19:44:44.215Z,20.20
2018-06-01T19:47:13.561Z,21.17
2018-06-01T19:49:42.409Z,18.93
2018-06-01T19:52:11.439Z,20.70
2018-06-01T19:54:40.306Z,21.70
2018-06-01T19:57:09.199Z,18.93
2018-06-01T19:59:38.051Z,20.20
2018-06-01T20:02:06.949Z,18.10
2018-06-01T20:04:35.823Z,20.07
2018-06-01T20:07:04.675Z,18.30
2018-06-01T20:09:33.557Z,17.37
2018-06-01T20:12:02.404Z,17.87
2018-06-01T20:14:31.423Z,18.77
2018-06-01T20:17:00.300Z,18.53
2018-06-01T20:19:29.223Z,18.80
2018-06-01T20:21:58.113Z,18.73
2018-06-01T20:24:27.181Z,23.10
2018-06-01T20:26:56.083Z,19.33
2018-06-01T20:29:24.987Z,17.10
2018-06-01T20:31:53.879Z,20.00
2018-06-01T20:34:22.739Z,17.10
2018-06-01T20:36:51.621Z,18.93
2018-06-01T20:39:20.469Z,21.53
2018-06-01T20:41:49.397Z,19.07
2018-06-01T20:44:18.285Z,17.07
2018-06-01T20:46:47.202Z,18.53
2018-06-01T20:49:16.090Z,18.50
2018-06-01T20:51:44.981Z,19.13
2018-06-01T20:54:14.677Z,18.17
2018-06-01T20:56:43.583Z,16.77
2018-06-01T20:59:12.443Z,21.10
2018-06-01T21:01:41.317Z,19.27
2018-06-01T21:04:10.214Z,21.97
2018-06-01T21:06:39.099Z,19.37
2018-06-01T21:09:07.947Z,19.00
2018-06-01T21:11:36.805Z,20.00
2018-06-01T21:14:05.698Z,21.40
2018-06-01T21:16:34.874Z,19.20
2018-06-01T21:19:03.907Z,19.43
2018-06-01T21:21:33.030Z,20.73
2018-06-01T21:24:02.117Z,23.13
2018-06-01T21:26:31.002Z,19.73
2018-06-01T21:28:59.898Z,20.33
2018-06-01T21:31:28.754Z,22.40
2018-06-01T21:33:57.601Z,21.00
2018-06-01T21:36:26.455Z,21.20
2018-06-01T21:38:55.306Z,24.03
2018-06-01T21:41:24.198Z,19.67
2018-06-01T21:43:53.250Z,21.40
2018-06-01T21:46:22.248Z,22.83
2018-06-01T21:48:51.161Z,20.97
2018-06-01T21:51:20.210Z,20.17
2018-06-01T21:53:49.042Z,23.67
2018-06-01T21:56:17.914Z,27.70
2018-06-01T21:58:46.763Z,21.63
2018-06-01T22:01:22.355Z,22.83
2018-06-01T22:03:51.323Z,29.20
2018-06-01T22:06:20.264Z,32.40
2018-06-01T22:08:49.126Z,35.33
2018-06-01T22:11:18.089Z,35.20
2018-06-01T22:13:47.140Z,37.90
2018-06-01T22:16:16.083Z,31.50
2018-06-01T22:18:44.930Z,36.50
2018-06-01T22:21:13.793Z,41.03
2018-06-01T22:23:42.692Z,42.97
2018-06-01T22:26:11.599Z,43.23
2018-06-01T22:28:40.435Z,41.57
2018-06-01T22:31:09.304Z,43.53
2018-06-01T22:33:38.222Z,49.40
2018-06-01T22:36:07.079Z,43.97
2018-06-01T22:38:36.664Z,56.77
2018-06-01T22:41:05.561Z,52.03
2018-06-01T22:43:34.400Z,50.60
2018-06-01T22:46:03.305Z,53.50
2018-06-01T22:48:32.166Z,61.37
2018-06-01T22:51:01.031Z,54.90
2018-06-01T22:53:29.868Z,52.50
2018-06-01T22:55:58.752Z,64.40
2018-06-01T22:58:27.637Z,53.37
2018-06-01T23:00:56.514Z,62.03
2018-06-01T23:03:25.419Z,54.67
2018-06-01T23:05:54.289Z,65.13
2018-06-01T23:08:23.179Z,70.60
2018-06-01T23:10:52.049Z,58.83
2018-06-01T23:13:20.935Z,56.43
2018-06-01T23:15:49.805Z,60.57
2018-06-01T23:18:18.666Z,61.67
2018-06-01T23:20:48.487Z,69.23
2018-06-01T23:23:17.337Z,64.30
2018-06-01T23:25:46.265Z,79.50
2018-06-01T23:28:16.039Z,71.10
2018-06-01T23:30:44.897Z,77.30
2018-06-01T23:33:13.768Z,79.07
2018-06-01T23:35:42.644Z,78.53
2018-06-01T23:38:11.494Z,72.90
2018-06-01T23:40:40.395Z,81.90
2018-06-01T23:43:09.281Z,93.03
2018-06-01T23:45:38.130Z,85.90
2018-06-01T23:48:06.992Z,65.27
2018-06-01T23:50:35.842Z,83.00
2018-06-01T23:53:04.732Z,62.13
2018-06-01T23:55:33.837Z,64.63
2018-06-01T23:58:02.713Z,85.27
